sensor_id;sensor_type;location;lat;lon;timestamp;P1;durP1;ratioP1;P2;durP2;ratioP2
77726;SDS011;68312;53.502;10.030;2023-03-26T00:01:10;11.40;;;1.80;;
77726;SDS011;68312;53.502;10.030;2023-03-26T00:03:42;8.38;;;1.95;;
77726;SDS011;68312;53.502;10.030;2023-03-26T00:06:12;8.02;;;1.83;;
77726;SDS011;68312;53.502;10.030;2023-03-26T00:08:42;6.03;;;1.67;;
77726;SDS011;68312;53.502;10.030;2023-03-26T00:11:10;12.35;;;2.45;;
77726;SDS011;68312;53.502;10.030;2023-03-26T00:13:40;14.18;;;2.00;;
77726;SDS011;68312;53.502;10.030;2023-03-26T00:16:11;8.13;;;1.83;;
77726;SDS011;68312;53.502;10.030;2023-03-26T00:21:12;8.68;;;1.80;;
77726;SDS011;68312;53.502;10.030;2023-03-26T00:23:44;10.43;;;1.80;;
77726;SDS011;68312;53.502;10.030;2023-03-26T00:26:11;10.20;;;2.80;;
77726;SDS011;68312;53.502;10.030;2023-03-26T00:28:38;9.70;;;2.03;;
77726;SDS011;68312;53.502;10.030;2023-03-26T00:31:07;7.43;;;1.55;;
77726;SDS011;68312;53.502;10.030;2023-03-26T00:33:39;7.20;;;2.35;;
77726;SDS011;68312;53.502;10.030;2023-03-26T00:36:10;13.10;;;2.50;;
77726;SDS011;68312;53.502;10.030;2023-03-26T00:38:41;7.22;;;1.60;;
77726;SDS011;68312;53.502;10.030;2023-03-26T00:41:11;12.05;;;2.17;;
77726;SDS011;68312;53.502;10.030;2023-03-26T00:43:50;12.65;;;2.55;;
77726;SDS011;68312;53.502;10.030;2023-03-26T00:46:25;6.28;;;2.15;;
77726;SDS011;68312;53.502;10.030;2023-03-26T00:48:55;4.27;;;1.60;;
77726;SDS011;68312;53.502;10.030;2023-03-26T00:51:23;5.53;;;1.92;;
77726;SDS011;68312;53.502;10.030;2023-03-26T00:53:51;7.03;;;1.58;;
77726;SDS011;68312;53.502;10.030;2023-03-26T00:56:17;9.30;;;1.80;;
77726;SDS011;68312;53.502;10.030;2023-03-26T00:58:44;8.95;;;1.98;;
77726;SDS011;68312;53.502;10.030;2023-03-26T01:01:12;3.97;;;1.50;;
77726;SDS011;68312;53.502;10.030;2023-03-26T01:03:44;5.32;;;1.45;;
77726;SDS011;68312;53.502;10.030;2023-03-26T01:06:32;8.30;;;1.80;;
77726;SDS011;68312;53.502;10.030;2023-03-26T01:09:03;5.57;;;1.70;;
77726;SDS011;68312;53.502;10.030;2023-03-26T01:11:41;7.60;;;1.80;;
77726;SDS011;68312;53.502;10.030;2023-03-26T01:14:12;6.18;;;1.27;;
77726;SDS011;68312;53.502;10.030;2023-03-26T01:16:47;10.80;;;1.60;;
77726;SDS011;68312;53.502;10.030;2023-03-26T01:22:02;8.30;;;1.38;;
77726;SDS011;68312;53.502;10.030;2023-03-26T01:24:29;4.50;;;1.40;;
77726;SDS011;68312;53.502;10.030;2023-03-26T01:27:01;2.22;;;1.00;;
77726;SDS011;68312;53.502;10.030;2023-03-26T01:30:02;5.70;;;1.17;;
77726;SDS011;68312;53.502;10.030;2023-03-26T01:33:19;7.40;;;1.88;;
77726;SDS011;68312;53.502;10.030;2023-03-26T01:41:57;7.97;;;1.67;;
77726;SDS011;68312;53.502;10.030;2023-03-26T01:47:27;9.52;;;1.77;;
77726;SDS011;68312;53.502;10.030;2023-03-26T01:49:55;8.07;;;1.35;;
77726;SDS011;68312;53.502;10.030;2023-03-26T01:52:21;5.30;;;1.23;;
77726;SDS011;68312;53.502;10.030;2023-03-26T01:54:50;6.35;;;1.30;;
77726;SDS011;68312;53.502;10.030;2023-03-26T01:57:35;6.70;;;1.60;;
77726;SDS011;68312;53.502;10.030;2023-03-26T02:00:45;6.50;;;1.30;;
77726;SDS011;68312;53.502;10.030;2023-03-26T02:03:38;6.13;;;1.52;;
77726;SDS011;68312;53.502;10.030;2023-03-26T02:06:27;8.20;;;1.40;;
77726;SDS011;68312;53.502;10.030;2023-03-26T02:09:10;6.82;;;1.40;;
77726;SDS011;68312;53.502;10.030;2023-03-26T02:11:44;8.00;;;1.77;;
77726;SDS011;68312;53.502;10.030;2023-03-26T02:14:12;8.35;;;1.80;;
77726;SDS011;68312;53.502;10.030;2023-03-26T02:16:40;8.07;;;1.45;;
77726;SDS011;68312;53.502;10.030;2023-03-26T02:19:09;7.55;;;1.30;;
77726;SDS011;68312;53.502;10.030;2023-03-26T02:21:39;9.10;;;1.63;;
77726;SDS011;68312;53.502;10.030;2023-03-26T02:24:06;6.05;;;1.33;;
77726;SDS011;68312;53.502;10.030;2023-03-26T02:26:33;8.13;;;1.40;;
77726;SDS011;68312;53.502;10.030;2023-03-26T02:29:01;8.98;;;1.15;;
77726;SDS011;68312;53.502;10.030;2023-03-26T02:31:27;4.85;;;1.20;;
77726;SDS011;68312;53.502;10.030;2023-03-26T02:33:54;11.45;;;1.75;;
77726;SDS011;68312;53.502;10.030;2023-03-26T02:36:20;6.32;;;1.10;;
77726;SDS011;68312;53.502;10.030;2023-03-26T02:38:55;5.53;;;1.10;;
77726;SDS011;68312;53.502;10.030;2023-03-26T02:41:22;8.15;;;1.48;;
77726;SDS011;68312;53.502;10.030;2023-03-26T02:43:47;8.57;;;1.30;;
77726;SDS011;68312;53.502;10.030;2023-03-26T02:46:13;5.43;;;1.27;;
77726;SDS011;68312;53.502;10.030;2023-03-26T02:48:39;5.30;;;1.33;;
77726;SDS011;68312;53.502;10.030;2023-03-26T02:51:05;5.95;;;1.20;;
77726;SDS011;68312;53.502;10.030;2023-03-26T02:53:31;7.40;;;1.27;;
77726;SDS011;68312;53.502;10.030;2023-03-26T02:55:57;4.72;;;0.95;;
77726;SDS011;68312;53.502;10.030;2023-03-26T02:58:25;11.93;;;1.67;;
77726;SDS011;68312;53.502;10.030;2023-03-26T03:00:54;6.15;;;0.90;;
77726;SDS011;68312;53.502;10.030;2023-03-26T03:03:24;6.68;;;1.23;;
77726;SDS011;68312;53.502;10.030;2023-03-26T03:05:51;6.70;;;1.13;;
77726;SDS011;68312;53.502;10.030;2023-03-26T03:08:19;7.28;;;1.23;;
77726;SDS011;68312;53.502;10.030;2023-03-26T03:10:57;4.00;;;0.93;;
77726;SDS011;68312;53.502;10.030;2023-03-26T03:13:28;6.07;;;1.02;;
77726;SDS011;68312;53.502;10.030;2023-03-26T03:15:54;3.15;;;0.88;;
77726;SDS011;68312;53.502;10.030;2023-03-26T03:18:20;6.25;;;1.20;;
77726;SDS011;68312;53.502;10.030;2023-03-26T03:20:45;10.48;;;1.70;;
77726;SDS011;68312;53.502;10.030;2023-03-26T03:23:11;4.50;;;1.30;;
77726;SDS011;68312;53.502;10.030;2023-03-26T03:25:38;5.10;;;0.90;;
77726;SDS011;68312;53.502;10.030;2023-03-26T03:28:05;5.68;;;1.50;;
77726;SDS011;68312;53.502;10.030;2023-03-26T03:30:31;9.02;;;1.63;;
77726;SDS011;68312;53.502;10.030;2023-03-26T03:32:57;7.10;;;1.20;;
77726;SDS011;68312;53.502;10.030;2023-03-26T03:35:24;10.77;;;1.30;;
77726;SDS011;68312;53.502;10.030;2023-03-26T03:37:51;8.32;;;1.65;;
77726;SDS011;68312;53.502;10.030;2023-03-26T03:40:17;7.13;;;1.55;;
77726;SDS011;68312;53.502;10.030;2023-03-26T03:42:44;8.20;;;1.25;;
77726;SDS011;68312;53.502;10.030;2023-03-26T03:45:11;6.80;;;1.25;;
77726;SDS011;68312;53.502;10.030;2023-03-26T03:47:37;5.82;;;1.20;;
77726;SDS011;68312;53.502;10.030;2023-03-26T03:50:03;8.65;;;1.88;;
77726;SDS011;68312;53.502;10.030;2023-03-26T03:52:31;12.93;;;1.65;;
77726;SDS011;68312;53.502;10.030;2023-03-26T03:54:57;4.00;;;1.13;;
77726;SDS011;68312;53.502;10.030;2023-03-26T03:57:24;10.88;;;1.45;;
77726;SDS011;68312;53.502;10.030;2023-03-26T03:59:51;8.38;;;1.15;;
77726;SDS011;68312;53.502;10.030;2023-03-26T04:02:17;5.82;;;1.20;;
77726;SDS011;68312;53.502;10.030;2023-03-26T04:04:58;8.30;;;1.38;;
77726;SDS011;68312;53.502;10.030;2023-03-26T04:07:27;8.18;;;1.45;;
77726;SDS011;68312;53.502;10.030;2023-03-26T04:09:55;13.30;;;1.80;;
77726;SDS011;68312;53.502;10.030;2023-03-26T04:12:28;7.90;;;2.15;;
77726;SDS011;68312;53.502;10.030;2023-03-26T04:14:54;6.28;;;1.27;;
77726;SDS011;68312;53.502;10.030;2023-03-26T04:17:21;7.78;;;1.42;;
77726;SDS011;68312;53.502;10.030;2023-03-26T04:19:48;5.82;;;1.33;;
77726;SDS011;68312;53.502;10.030;2023-03-26T04:22:16;9.15;;;1.45;;
77726;SDS011;68312;53.502;10.030;2023-03-26T04:24:43;9.40;;;1.55;;
77726;SDS011;68312;53.502;10.030;2023-03-26T04:27:13;13.65;;;1.40;;
77726;SDS011;68312;53.502;10.030;2023-03-26T04:29:49;6.22;;;1.35;;
77726;SDS011;68312;53.502;10.030;2023-03-26T04:32:22;6.93;;;1.45;;
77726;SDS011;68312;53.502;10.030;2023-03-26T04:34:53;10.50;;;1.40;;
77726;SDS011;68312;53.502;10.030;2023-03-26T04:37:25;5.78;;;1.38;;
77726;SDS011;68312;53.502;10.030;2023-03-26T04:39:58;12.13;;;1.38;;
77726;SDS011;68312;53.502;10.030;2023-03-26T04:42:26;12.15;;;1.90;;
77726;SDS011;68312;53.502;10.030;2023-03-26T04:44:52;8.45;;;1.13;;
77726;SDS011;68312;53.502;10.030;2023-03-26T04:47:18;5.93;;;1.33;;
77726;SDS011;68312;53.502;10.030;2023-03-26T04:49:44;4.78;;;1.05;;
77726;SDS011;68312;53.502;10.030;2023-03-26T04:52:11;13.05;;;1.70;;
77726;SDS011;68312;53.502;10.030;2023-03-26T04:54:39;5.30;;;1.25;;
77726;SDS011;68312;53.502;10.030;2023-03-26T04:57:12;6.13;;;1.30;;
77726;SDS011;68312;53.502;10.030;2023-03-26T04:59:47;4.50;;;1.13;;
77726;SDS011;68312;53.502;10.030;2023-03-26T05:02:14;10.65;;;1.52;;
77726;SDS011;68312;53.502;10.030;2023-03-26T05:04:39;7.63;;;1.70;;
77726;SDS011;68312;53.502;10.030;2023-03-26T05:07:08;5.90;;;1.45;;
77726;SDS011;68312;53.502;10.030;2023-03-26T05:09:40;4.97;;;1.07;;
77726;SDS011;68312;53.502;10.030;2023-03-26T05:12:05;8.02;;;1.27;;
77726;SDS011;68312;53.502;10.030;2023-03-26T05:14:31;7.22;;;1.00;;
77726;SDS011;68312;53.502;10.030;2023-03-26T05:16:56;6.10;;;1.15;;
77726;SDS011;68312;53.502;10.030;2023-03-26T05:19:22;7.78;;;1.35;;
77726;SDS011;68312;53.502;10.030;2023-03-26T05:21:48;7.80;;;1.10;;
77726;SDS011;68312;53.502;10.030;2023-03-26T05:24:13;6.47;;;1.25;;
77726;SDS011;68312;53.502;10.030;2023-03-26T05:26:39;3.50;;;0.82;;
77726;SDS011;68312;53.502;10.030;2023-03-26T05:29:05;6.97;;;1.55;;
77726;SDS011;68312;53.502;10.030;2023-03-26T05:31:30;8.70;;;1.33;;
77726;SDS011;68312;53.502;10.030;2023-03-26T05:33:56;4.20;;;0.85;;
77726;SDS011;68312;53.502;10.030;2023-03-26T05:36:24;7.70;;;1.48;;
77726;SDS011;68312;53.502;10.030;2023-03-26T05:38:52;7.50;;;1.05;;
77726;SDS011;68312;53.502;10.030;2023-03-26T05:41:18;9.93;;;2.08;;
77726;SDS011;68312;53.502;10.030;2023-03-26T05:43:43;2.75;;;0.68;;
77726;SDS011;68312;53.502;10.030;2023-03-26T05:46:10;6.10;;;1.05;;
77726;SDS011;68312;53.502;10.030;2023-03-26T05:48:36;4.75;;;0.98;;
77726;SDS011;68312;53.502;10.030;2023-03-26T05:51:03;7.38;;;0.98;;
77726;SDS011;68312;53.502;10.030;2023-03-26T05:53:29;4.32;;;1.05;;
77726;SDS011;68312;53.502;10.030;2023-03-26T05:55:56;2.05;;;0.75;;
77726;SDS011;68312;53.502;10.030;2023-03-26T05:58:25;6.05;;;0.90;;
77726;SDS011;68312;53.502;10.030;2023-03-26T06:00:55;6.28;;;1.35;;
77726;SDS011;68312;53.502;10.030;2023-03-26T06:03:35;5.72;;;1.40;;
77726;SDS011;68312;53.502;10.030;2023-03-26T06:06:08;5.53;;;0.90;;
77726;SDS011;68312;53.502;10.030;2023-03-26T06:08:42;8.40;;;1.38;;
77726;SDS011;68312;53.502;10.030;2023-03-26T06:11:13;6.93;;;0.93;;
77726;SDS011;68312;53.502;10.030;2023-03-26T06:13:40;6.32;;;0.85;;
77726;SDS011;68312;53.502;10.030;2023-03-26T06:16:07;3.53;;;0.88;;
77726;SDS011;68312;53.502;10.030;2023-03-26T06:18:38;8.07;;;1.35;;
77726;SDS011;68312;53.502;10.030;2023-03-26T06:21:05;6.75;;;1.02;;
77726;SDS011;68312;53.502;10.030;2023-03-26T06:23:31;5.65;;;1.08;;
77726;SDS011;68312;53.502;10.030;2023-03-26T06:25:57;8.13;;;1.23;;
77726;SDS011;68312;53.502;10.030;2023-03-26T06:28:24;5.97;;;1.13;;
77726;SDS011;68312;53.502;10.030;2023-03-26T06:30:50;3.10;;;1.05;;
77726;SDS011;68312;53.502;10.030;2023-03-26T06:33:16;10.95;;;1.75;;
77726;SDS011;68312;53.502;10.030;2023-03-26T06:35:43;13.13;;;1.92;;
77726;SDS011;68312;53.502;10.030;2023-03-26T06:38:10;8.95;;;1.35;;
77726;SDS011;68312;53.502;10.030;2023-03-26T06:40:36;7.32;;;1.33;;
77726;SDS011;68312;53.502;10.030;2023-03-26T06:43:02;12.93;;;1.83;;
77726;SDS011;68312;53.502;10.030;2023-03-26T06:45:28;5.20;;;1.35;;
77726;SDS011;68312;53.502;10.030;2023-03-26T06:47:56;9.93;;;1.63;;
77726;SDS011;68312;53.502;10.030;2023-03-26T06:50:21;7.55;;;1.27;;
77726;SDS011;68312;53.502;10.030;2023-03-26T06:52:47;6.95;;;1.65;;
77726;SDS011;68312;53.502;10.030;2023-03-26T06:55:14;6.95;;;1.50;;
77726;SDS011;68312;53.502;10.030;2023-03-26T06:57:40;8.73;;;1.52;;
77726;SDS011;68312;53.502;10.030;2023-03-26T07:00:09;7.82;;;1.38;;
77726;SDS011;68312;53.502;10.030;2023-03-26T07:02:36;3.53;;;1.00;;
77726;SDS011;68312;53.502;10.030;2023-03-26T07:05:02;4.97;;;1.20;;
77726;SDS011;68312;53.502;10.030;2023-03-26T07:07:28;6.18;;;1.33;;
77726;SDS011;68312;53.502;10.030;2023-03-26T07:09:53;4.68;;;1.15;;
77726;SDS011;68312;53.502;10.030;2023-03-26T07:12:19;7.03;;;1.15;;
77726;SDS011;68312;53.502;10.030;2023-03-26T07:14:44;8.32;;;1.27;;
77726;SDS011;68312;53.502;10.030;2023-03-26T07:17:10;7.72;;;1.67;;
77726;SDS011;68312;53.502;10.030;2023-03-26T07:19:35;8.70;;;1.88;;
77726;SDS011;68312;53.502;10.030;2023-03-26T07:22:01;3.70;;;1.50;;
77726;SDS011;68312;53.502;10.030;2023-03-26T07:24:27;11.30;;;1.70;;
77726;SDS011;68312;53.502;10.030;2023-03-26T07:27:19;6.90;;;1.40;;
77726;SDS011;68312;53.502;10.030;2023-03-26T07:30:14;4.15;;;1.20;;
77726;SDS011;68312;53.502;10.030;2023-03-26T07:42:15;4.97;;;1.60;;
77726;SDS011;68312;53.502;10.030;2023-03-26T07:45:44;5.03;;;1.30;;
77726;SDS011;68312;53.502;10.030;2023-03-26T07:48:20;5.68;;;1.13;;
77726;SDS011;68312;53.502;10.030;2023-03-26T07:50:51;13.02;;;1.90;;
77726;SDS011;68312;53.502;10.030;2023-03-26T07:53:19;5.32;;;1.50;;
77726;SDS011;68312;53.502;10.030;2023-03-26T07:55:51;3.53;;;1.10;;
77726;SDS011;68312;53.502;10.030;2023-03-26T08:08:25;10.68;;;1.42;;
77726;SDS011;68312;53.502;10.030;2023-03-26T08:17:25;8.32;;;1.67;;
77726;SDS011;68312;53.502;10.030;2023-03-26T08:23:13;8.82;;;1.70;;
77726;SDS011;68312;53.502;10.030;2023-03-26T08:26:40;8.55;;;1.30;;
77726;SDS011;68312;53.502;10.030;2023-03-26T08:32:18;8.70;;;1.35;;
77726;SDS011;68312;53.502;10.030;2023-03-26T08:34:45;11.40;;;1.38;;
77726;SDS011;68312;53.502;10.030;2023-03-26T08:37:11;9.45;;;1.60;;
77726;SDS011;68312;53.502;10.030;2023-03-26T08:39:37;11.85;;;2.03;;
77726;SDS011;68312;53.502;10.030;2023-03-26T09:01:37;8.95;;;1.85;;
77726;SDS011;68312;53.502;10.030;2023-03-26T09:05:21;8.88;;;1.55;;
77726;SDS011;68312;53.502;10.030;2023-03-26T09:37:27;12.00;;;2.10;;
77726;SDS011;68312;53.502;10.030;2023-03-26T09:40:21;12.52;;;2.15;;
77726;SDS011;68312;53.502;10.030;2023-03-26T09:56:38;5.90;;;1.48;;
77726;SDS011;68312;53.502;10.030;2023-03-26T10:02:29;7.88;;;1.30;;
77726;SDS011;68312;53.502;10.030;2023-03-26T10:05:34;7.43;;;1.65;;
77726;SDS011;68312;53.502;10.030;2023-03-26T10:08:55;9.25;;;2.60;;
77726;SDS011;68312;53.502;10.030;2023-03-26T10:15:13;9.05;;;1.58;;
77726;SDS011;68312;53.502;10.030;2023-03-26T10:18:03;12.23;;;1.92;;
77726;SDS011;68312;53.502;10.030;2023-03-26T10:27:20;8.02;;;1.40;;
77726;SDS011;68312;53.502;10.030;2023-03-26T10:33:11;9.38;;;2.10;;
77726;SDS011;68312;53.502;10.030;2023-03-26T10:36:34;7.90;;;1.23;;
77726;SDS011;68312;53.502;10.030;2023-03-26T10:39:32;8.55;;;2.53;;
77726;SDS011;68312;53.502;10.030;2023-03-26T10:42:23;15.02;;;2.55;;
77726;SDS011;68312;53.502;10.030;2023-03-26T10:52:24;10.45;;;2.13;;
77726;SDS011;68312;53.502;10.030;2023-03-26T10:58:21;8.35;;;1.63;;
77726;SDS011;68312;53.502;10.030;2023-03-26T11:03:37;8.05;;;1.80;;
77726;SDS011;68312;53.502;10.030;2023-03-26T11:06:36;8.45;;;1.75;;
77726;SDS011;68312;53.502;10.030;2023-03-26T11:15:29;9.85;;;1.33;;
77726;SDS011;68312;53.502;10.030;2023-03-26T11:18:21;8.20;;;1.38;;
77726;SDS011;68312;53.502;10.030;2023-03-26T11:21:23;7.22;;;1.38;;
77726;SDS011;68312;53.502;10.030;2023-03-26T11:33:13;10.65;;;1.52;;
77726;SDS011;68312;53.502;10.030;2023-03-26T11:35:49;4.55;;;1.10;;
77726;SDS011;68312;53.502;10.030;2023-03-26T11:38:25;7.63;;;1.50;;
77726;SDS011;68312;53.502;10.030;2023-03-26T11:41:09;12.05;;;1.98;;
77726;SDS011;68312;53.502;10.030;2023-03-26T11:43:43;10.02;;;1.40;;
77726;SDS011;68312;53.502;10.030;2023-03-26T11:46:19;12.30;;;1.60;;
77726;SDS011;68312;53.502;10.030;2023-03-26T11:48:51;12.90;;;2.03;;
77726;SDS011;68312;53.502;10.030;2023-03-26T11:51:29;9.38;;;1.70;;
77726;SDS011;68312;53.502;10.030;2023-03-26T11:54:03;10.02;;;1.70;;
77726;SDS011;68312;53.502;10.030;2023-03-26T11:59:27;9.30;;;2.30;;
77726;SDS011;68312;53.502;10.030;2023-03-26T12:04:38;8.10;;;2.28;;
77726;SDS011;68312;53.502;10.030;2023-03-26T12:07:13;7.03;;;1.55;;
77726;SDS011;68312;53.502;10.030;2023-03-26T12:09:59;5.18;;;1.25;;
77726;SDS011;68312;53.502;10.030;2023-03-26T12:12:32;14.48;;;1.60;;
77726;SDS011;68312;53.502;10.030;2023-03-26T12:15:14;10.07;;;1.60;;
77726;SDS011;68312;53.502;10.030;2023-03-26T12:17:44;7.82;;;1.55;;
77726;SDS011;68312;53.502;10.030;2023-03-26T12:22:49;7.80;;;1.50;;
77726;SDS011;68312;53.502;10.030;2023-03-26T12:25:28;7.13;;;1.52;;
77726;SDS011;68312;53.502;10.030;2023-03-26T12:31:00;5.22;;;0.90;;
77726;SDS011;68312;53.502;10.030;2023-03-26T12:33:32;9.90;;;1.52;;
77726;SDS011;68312;53.502;10.030;2023-03-26T12:36:15;10.32;;;1.67;;
77726;SDS011;68312;53.502;10.030;2023-03-26T12:38:50;9.48;;;1.35;;
77726;SDS011;68312;53.502;10.030;2023-03-26T12:41:18;9.30;;;1.80;;
77726;SDS011;68312;53.502;10.030;2023-03-26T12:47:18;8.10;;;1.58;;
77726;SDS011;68312;53.502;10.030;2023-03-26T12:49:56;7.88;;;1.42;;
77726;SDS011;68312;53.502;10.030;2023-03-26T12:52:26;6.35;;;1.42;;
77726;SDS011;68312;53.502;10.030;2023-03-26T13:17:12;8.40;;;1.70;;
77726;SDS011;68312;53.502;10.030;2023-03-26T13:31:57;6.65;;;1.23;;
77726;SDS011;68312;53.502;10.030;2023-03-26T13:34:58;6.32;;;1.48;;
77726;SDS011;68312;53.502;10.030;2023-03-26T13:37:52;9.85;;;1.45;;
77726;SDS011;68312;53.502;10.030;2023-03-26T13:43:56;6.65;;;1.58;;
77726;SDS011;68312;53.502;10.030;2023-03-26T13:46:57;9.57;;;2.40;;
77726;SDS011;68312;53.502;10.030;2023-03-26T13:50:13;6.05;;;1.25;;
77726;SDS011;68312;53.502;10.030;2023-03-26T13:53:01;7.47;;;1.58;;
77726;SDS011;68312;53.502;10.030;2023-03-26T13:55:42;9.80;;;1.65;;
77726;SDS011;68312;53.502;10.030;2023-03-26T13:58:23;7.75;;;1.23;;
77726;SDS011;68312;53.502;10.030;2023-03-26T14:04:26;7.80;;;1.80;;
77726;SDS011;68312;53.502;10.030;2023-03-26T14:07:21;6.35;;;1.30;;
77726;SDS011;68312;53.502;10.030;2023-03-26T14:10:18;13.07;;;1.50;;
77726;SDS011;68312;53.502;10.030;2023-03-26T14:12:54;6.40;;;1.60;;
77726;SDS011;68312;53.502;10.030;2023-03-26T14:15:54;7.00;;;1.48;;
77726;SDS011;68312;53.502;10.030;2023-03-26T14:18:34;6.85;;;1.33;;
77726;SDS011;68312;53.502;10.030;2023-03-26T14:24:41;4.00;;;1.33;;
77726;SDS011;68312;53.502;10.030;2023-03-26T14:37:28;8.25;;;1.48;;
77726;SDS011;68312;53.502;10.030;2023-03-26T14:40:29;9.40;;;2.17;;
77726;SDS011;68312;53.502;10.030;2023-03-26T14:46:52;6.85;;;1.23;;
77726;SDS011;68312;53.502;10.030;2023-03-26T14:53:28;8.10;;;1.55;;
77726;SDS011;68312;53.502;10.030;2023-03-26T15:30:27;8.60;;;1.50;;
77726;SDS011;68312;53.502;10.030;2023-03-26T15:36:54;11.38;;;1.90;;
77726;SDS011;68312;53.502;10.030;2023-03-26T15:45:51;8.88;;;1.80;;
77726;SDS011;68312;53.502;10.030;2023-03-26T15:54:52;7.25;;;1.58;;
77726;SDS011;68312;53.502;10.030;2023-03-26T16:01:09;9.15;;;1.60;;
77726;SDS011;68312;53.502;10.030;2023-03-26T16:06:58;13.82;;;2.30;;
77726;SDS011;68312;53.502;10.030;2023-03-26T16:09:54;10.85;;;3.05;;
77726;SDS011;68312;53.502;10.030;2023-03-26T16:12:46;7.95;;;1.75;;
77726;SDS011;68312;53.502;10.030;2023-03-26T16:21:42;12.95;;;1.80;;
77726;SDS011;68312;53.502;10.030;2023-03-26T16:24:31;12.93;;;2.25;;
77726;SDS011;68312;53.502;10.030;2023-03-26T16:30:01;5.22;;;1.50;;
77726;SDS011;68312;53.502;10.030;2023-03-26T16:32:53;12.27;;;1.20;;
77726;SDS011;68312;53.502;10.030;2023-03-26T16:35:40;6.63;;;1.20;;
77726;SDS011;68312;53.502;10.030;2023-03-26T16:44:32;4.03;;;1.05;;
77726;SDS011;68312;53.502;10.030;2023-03-26T16:52:57;7.07;;;1.38;;
77726;SDS011;68312;53.502;10.030;2023-03-26T17:10:15;5.57;;;1.58;;
77726;SDS011;68312;53.502;10.030;2023-03-26T17:13:10;5.00;;;1.20;;
77726;SDS011;68312;53.502;10.030;2023-03-26T17:16:12;7.60;;;1.15;;
77726;SDS011;68312;53.502;10.030;2023-03-26T17:24:48;8.55;;;2.25;;
77726;SDS011;68312;53.502;10.030;2023-03-26T17:31:40;9.90;;;2.22;;
77726;SDS011;68312;53.502;10.030;2023-03-26T17:47:48;6.38;;;2.00;;
77726;SDS011;68312;53.502;10.030;2023-03-26T17:50:30;2.83;;;1.25;;
77726;SDS011;68312;53.502;10.030;2023-03-26T17:56:04;3.97;;;1.00;;
77726;SDS011;68312;53.502;10.030;2023-03-26T17:58:42;7.70;;;1.35;;
77726;SDS011;68312;53.502;10.030;2023-03-26T18:01:26;5.50;;;1.20;;
77726;SDS011;68312;53.502;10.030;2023-03-26T18:04:10;3.72;;;1.10;;
77726;SDS011;68312;53.502;10.030;2023-03-26T18:07:01;4.10;;;1.35;;
77726;SDS011;68312;53.502;10.030;2023-03-26T18:16:58;9.70;;;1.83;;
77726;SDS011;68312;53.502;10.030;2023-03-26T18:19:25;8.60;;;1.42;;
77726;SDS011;68312;53.502;10.030;2023-03-26T18:21:56;9.13;;;1.23;;
77726;SDS011;68312;53.502;10.030;2023-03-26T18:24:29;4.40;;;1.20;;
77726;SDS011;68312;53.502;10.030;2023-03-26T18:27:06;4.47;;;0.98;;
77726;SDS011;68312;53.502;10.030;2023-03-26T18:29:44;4.80;;;1.10;;
77726;SDS011;68312;53.502;10.030;2023-03-26T18:32:24;7.22;;;1.10;;
77726;SDS011;68312;53.502;10.030;2023-03-26T18:37:44;6.45;;;1.08;;
77726;SDS011;68312;53.502;10.030;2023-03-26T18:40:21;4.78;;;1.05;;
77726;SDS011;68312;53.502;10.030;2023-03-26T18:42:55;5.10;;;1.20;;
77726;SDS011;68312;53.502;10.030;2023-03-26T18:47:59;2.03;;;0.68;;
77726;SDS011;68312;53.502;10.030;2023-03-26T18:50:34;2.50;;;1.10;;
77726;SDS011;68312;53.502;10.030;2023-03-26T18:53:08;3.55;;;1.20;;
77726;SDS011;68312;53.502;10.030;2023-03-26T18:55:45;2.60;;;1.00;;
77726;SDS011;68312;53.502;10.030;2023-03-26T18:58:22;3.70;;;1.35;;
77726;SDS011;68312;53.502;10.030;2023-03-26T19:01:02;2.60;;;0.93;;
77726;SDS011;68312;53.502;10.030;2023-03-26T19:03:36;3.40;;;0.93;;
77726;SDS011;68312;53.502;10.030;2023-03-26T19:06:09;4.68;;;0.82;;
77726;SDS011;68312;53.502;10.030;2023-03-26T19:08:40;3.53;;;0.90;;
77726;SDS011;68312;53.502;10.030;2023-03-26T19:11:10;2.65;;;0.68;;
77726;SDS011;68312;53.502;10.030;2023-03-26T19:13:40;1.52;;;0.68;;
77726;SDS011;68312;53.502;10.030;2023-03-26T19:19:07;1.45;;;0.70;;
77726;SDS011;68312;53.502;10.030;2023-03-26T19:21:38;6.97;;;1.33;;
77726;SDS011;68312;53.502;10.030;2023-03-26T19:24:05;4.88;;;1.08;;
77726;SDS011;68312;53.502;10.030;2023-03-26T19:26:32;3.83;;;0.68;;
77726;SDS011;68312;53.502;10.030;2023-03-26T19:29:00;3.97;;;0.70;;
77726;SDS011;68312;53.502;10.030;2023-03-26T19:31:32;1.30;;;0.60;;
77726;SDS011;68312;53.502;10.030;2023-03-26T19:40:00;1.67;;;0.57;;
77726;SDS011;68312;53.502;10.030;2023-03-26T19:42:38;3.63;;;0.50;;
77726;SDS011;68312;53.502;10.030;2023-03-26T19:45:09;1.33;;;0.82;;
77726;SDS011;68312;53.502;10.030;2023-03-26T19:47:46;1.40;;;0.50;;
77726;SDS011;68312;53.502;10.030;2023-03-26T19:50:25;3.75;;;0.60;;
77726;SDS011;68312;53.502;10.030;2023-03-26T19:53:30;1.67;;;0.50;;
77726;SDS011;68312;53.502;10.030;2023-03-26T19:58:33;2.63;;;0.73;;
77726;SDS011;68312;53.502;10.030;2023-03-26T20:01:03;1.25;;;0.52;;
77726;SDS011;68312;53.502;10.030;2023-03-26T20:03:38;1.30;;;0.52;;
77726;SDS011;68312;53.502;10.030;2023-03-26T20:06:09;1.45;;;0.55;;
77726;SDS011;68312;53.502;10.030;2023-03-26T20:08:38;1.48;;;0.60;;
77726;SDS011;68312;53.502;10.030;2023-03-26T20:11:04;2.47;;;0.82;;
77726;SDS011;68312;53.502;10.030;2023-03-26T20:13:40;0.65;;;0.40;;
77726;SDS011;68312;53.502;10.030;2023-03-26T20:18:49;2.50;;;0.75;;
77726;SDS011;68312;53.502;10.030;2023-03-26T20:21:15;5.10;;;0.60;;
77726;SDS011;68312;53.502;10.030;2023-03-26T20:23:42;4.47;;;0.60;;
77726;SDS011;68312;53.502;10.030;2023-03-26T20:26:10;3.30;;;0.65;;
77726;SDS011;68312;53.502;10.030;2023-03-26T20:28:40;3.45;;;0.60;;
77726;SDS011;68312;53.502;10.030;2023-03-26T20:31:10;2.00;;;0.50;;
77726;SDS011;68312;53.502;10.030;2023-03-26T20:33:46;4.88;;;0.85;;
77726;SDS011;68312;53.502;10.030;2023-03-26T20:36:15;3.10;;;0.82;;
77726;SDS011;68312;53.502;10.030;2023-03-26T20:38:41;1.25;;;0.40;;
77726;SDS011;68312;53.502;10.030;2023-03-26T20:41:19;2.25;;;0.88;;
77726;SDS011;68312;53.502;10.030;2023-03-26T20:43:48;1.20;;;0.50;;
77726;SDS011;68312;53.502;10.030;2023-03-26T20:46:20;3.53;;;0.52;;
77726;SDS011;68312;53.502;10.030;2023-03-26T20:48:49;1.42;;;0.45;;
77726;SDS011;68312;53.502;10.030;2023-03-26T20:51:17;3.58;;;0.65;;
77726;SDS011;68312;53.502;10.030;2023-03-26T20:53:44;2.05;;;0.50;;
77726;SDS011;68312;53.502;10.030;2023-03-26T20:56:15;2.25;;;0.93;;
77726;SDS011;68312;53.502;10.030;2023-03-26T20:58:44;4.43;;;0.57;;
77726;SDS011;68312;53.502;10.030;2023-03-26T21:01:13;6.60;;;0.70;;
77726;SDS011;68312;53.502;10.030;2023-03-26T21:03:41;2.30;;;0.70;;
77726;SDS011;68312;53.502;10.030;2023-03-26T21:06:11;1.40;;;0.70;;
77726;SDS011;68312;53.502;10.030;2023-03-26T21:08:38;3.67;;;0.85;;
77726;SDS011;68312;53.502;10.030;2023-03-26T21:11:19;4.35;;;0.65;;
77726;SDS011;68312;53.502;10.030;2023-03-26T21:17:10;4.10;;;0.80;;
77726;SDS011;68312;53.502;10.030;2023-03-26T21:19:41;2.28;;;0.60;;
77726;SDS011;68312;53.502;10.030;2023-03-26T21:22:21;1.25;;;0.60;;
77726;SDS011;68312;53.502;10.030;2023-03-26T21:25:07;1.95;;;0.68;;
77726;SDS011;68312;53.502;10.030;2023-03-26T21:31:03;5.75;;;1.00;;
77726;SDS011;68312;53.502;10.030;2023-03-26T21:33:30;1.70;;;0.73;;
77726;SDS011;68312;53.502;10.030;2023-03-26T21:35:57;2.03;;;0.60;;
77726;SDS011;68312;53.502;10.030;2023-03-26T21:38:24;1.17;;;0.50;;
77726;SDS011;68312;53.502;10.030;2023-03-26T21:40:52;4.80;;;0.60;;